Time;durP1;ratioP1;P1;durP2;ratioP2;P2;SDS_P1;SDS_P2;PMS_P1;PMS_P2;Temp;Humidity;BMP_temperature;BMP_pressure;BME280_temperature;BME280_humidity;BME280_pressure;Samples;Min_cycle;Max_cycle;Signal;HPM_P1;HPM_P2
2023/07/04 00:02:18;;;;;;;15.32;4.30;;;;;;;;;;5030739;28;20537;-52
2023/07/04 00:04:45;;;;;;;14.75;4.78;;;;;;;;;;5042876;28;20029;-51
2023/07/04 00:07:12;;;;;;;18.60;4.88;;;;;;;;;;5050553;28;20103;-51
2023/07/04 00:09:39;;;;;;;16.23;4.40;;;;;;;;;;5045389;28;20029;-52
2023/07/04 00:12:06;;;;;;;14.90;4.60;;;;;;;;;;5030509;28;20065;-53
2023/07/04 00:14:33;;;;;;;14.23;4.68;;;;;;;;;;5040110;28;20484;-48
2023/07/04 00:17:00;;;;;;;19.77;5.03;;;;;;;;;;5052111;28;20099;-51
2023/07/04 00:19:29;;;;;;;19.33;5.72;;;;;;;;;;5054466;28;20021;-49
2023/07/04 00:21:57;;;;;;;23.70;5.93;;;;;;;;;;5048329;28;20072;-47
2023/07/04 00:24:24;;;;;;;18.92;5.63;;;;;;;;;;5040817;28;20037;-48
2023/07/04 00:26:51;;;;;;;23.55;6.22;;;;;;;;;;5054225;28;20387;-50
2023/07/04 00:29:18;;;;;;;29.75;6.75;;;;;;;;;;5054346;28;20018;-51
2023/07/04 00:31:45;;;;;;;24.90;6.50;;;;;;;;;;5048199;28;20553;-49
2023/07/04 00:34:13;;;;;;;23.13;6.20;;;;;;;;;;5055005;28;20395;-53
2023/07/04 00:36:41;;;;;;;23.50;6.57;;;;;;;;;;5034685;28;20049;-51
2023/07/04 00:39:08;;;;;;;25.73;6.47;;;;;;;;;;5034088;28;20025;-49
2023/07/04 00:41:36;;;;;;;26.10;6.47;;;;;;;;;;5048870;28;20483;-53
2023/07/04 00:44:19;;;;;;;21.42;6.07;;;;;;;;;;5045241;28;20119;-52
2023/07/04 00:46:51;;;;;;;29.10;7.28;;;;;;;;;;5033791;28;20037;-49
2023/07/04 00:49:22;;;;;;;31.83;6.90;;;;;;;;;;5033827;28;20557;-54
2023/07/04 00:51:56;;;;;;;35.40;7.30;;;;;;;;;;5033700;28;20268;-51
2023/07/04 00:54:25;;;;;;;27.30;6.60;;;;;;;;;;5043171;28;20033;-49
2023/07/04 00:57:06;;;;;;;25.55;6.60;;;;;;;;;;5053602;28;20049;-48
2023/07/04 00:59:34;;;;;;;33.33;7.30;;;;;;;;;;5053574;28;20035;-50
2023/07/04 01:02:02;;;;;;;20.27;7.15;;;;;;;;;;5052757;28;20107;-52
2023/07/04 01:04:31;;;;;;;26.60;6.90;;;;;;;;;;5052800;28;20017;-48
2023/07/04 01:07:08;;;;;;;35.15;7.40;;;;;;;;;;5053352;28;20065;-46
2023/07/04 01:09:36;;;;;;;29.00;6.95;;;;;;;;;;5040949;28;20025;-50
2023/07/04 01:12:04;;;;;;;30.00;7.05;;;;;;;;;;5035402;28;20033;-46
2023/07/04 01:14:31;;;;;;;24.25;6.95;;;;;;;;;;5049317;28;20067;-50
2023/07/04 01:16:58;;;;;;;33.35;7.25;;;;;;;;;;5051701;28;20048;-49
2023/07/04 01:19:28;;;;;;;31.50;7.10;;;;;;;;;;5052450;28;20025;-49
2023/07/04 01:22:01;;;;;;;20.58;6.88;;;;;;;;;;5050449;28;20025;-46
2023/07/04 01:24:37;;;;;;;22.75;6.78;;;;;;;;;;5041125;28;20049;-53
2023/07/04 01:27:04;;;;;;;22.80;6.30;;;;;;;;;;5041747;28;20028;-48
2023/07/04 01:29:36;;;;;;;20.35;6.93;;;;;;;;;;5043697;28;20071;-47
2023/07/04 01:32:03;;;;;;;21.38;6.68;;;;;;;;;;5043488;28;20018;-46
2023/07/04 01:34:33;;;;;;;27.48;6.72;;;;;;;;;;5041462;28;20091;-47
2023/07/04 01:37:04;;;;;;;18.92;6.30;;;;;;;;;;5044123;28;20047;-49
2023/07/04 01:39:31;;;;;;;23.88;6.53;;;;;;;;;;5041465;28;20017;-49
2023/07/04 01:42:04;;;;;;;27.98;6.40;;;;;;;;;;5042384;28;20360;-50
2023/07/04 01:44:31;;;;;;;29.30;6.15;;;;;;;;;;5043491;28;20037;-49
2023/07/04 01:46:58;;;;;;;25.10;6.20;;;;;;;;;;5052468;28;20021;-51
2023/07/04 01:49:25;;;;;;;20.63;5.93;;;;;;;;;;5052394;28;20075;-47
2023/07/04 01:51:52;;;;;;;20.15;6.03;;;;;;;;;;5052175;28;20025;-50
2023/07/04 01:54:19;;;;;;;21.70;6.15;;;;;;;;;;5052174;28;20074;-53
2023/07/04 01:56:48;;;;;;;23.42;5.75;;;;;;;;;;5052503;28;20037;-49
2023/07/04 01:59:15;;;;;;;19.35;6.13;;;;;;;;;;5051543;28;20033;-50
2023/07/04 02:01:43;;;;;;;22.00;6.15;;;;;;;;;;5052393;28;20070;-49
2023/07/04 02:04:10;;;;;;;19.83;6.45;;;;;;;;;;5052749;28;20021;-50
2023/07/04 02:06:37;;;;;;;20.35;5.90;;;;;;;;;;5052735;28;20036;-52
2023/07/04 02:09:04;;;;;;;16.30;5.47;;;;;;;;;;5052707;28;20021;-49
2023/07/04 02:11:31;;;;;;;14.98;5.75;;;;;;;;;;5052661;28;20025;-47
2023/07/04 02:14:00;;;;;;;19.15;5.97;;;;;;;;;;5052494;28;20033;-47
2023/07/04 02:16:27;;;;;;;19.63;6.22;;;;;;;;;;5052360;28;20029;-47
2023/07/04 02:18:54;;;;;;;14.20;5.20;;;;;;;;;;5052595;28;20040;-47
2023/07/04 02:21:21;;;;;;;17.05;5.60;;;;;;;;;;5052442;28;20031;-48
2023/07/04 02:23:48;;;;;;;14.18;5.50;;;;;;;;;;5052349;28;20123;-48
2023/07/04 02:26:16;;;;;;;15.85;5.20;;;;;;;;;;5052200;28;20037;-47
2023/07/04 02:28:43;;;;;;;13.48;4.88;;;;;;;;;;5052375;28;20057;-46
2023/07/04 02:31:10;;;;;;;13.38;5.05;;;;;;;;;;5052288;28;20021;-47
2023/07/04 02:33:37;;;;;;;17.42;5.30;;;;;;;;;;5052273;28;20391;-47
2023/07/04 02:36:04;;;;;;;14.57;5.65;;;;;;;;;;5051740;28;20033;-47
2023/07/04 02:38:31;;;;;;;15.13;5.00;;;;;;;;;;5051785;28;20063;-48
2023/07/04 02:40:58;;;;;;;15.32;5.30;;;;;;;;;;5052105;28;20036;-47
2023/07/04 02:43:25;;;;;;;12.85;4.63;;;;;;;;;;5052097;28;20413;-47
2023/07/04 02:45:52;;;;;;;14.30;4.95;;;;;;;;;;5051968;28;20033;-49
2023/07/04 02:48:20;;;;;;;11.98;5.05;;;;;;;;;;5051969;28;20108;-47
2023/07/04 02:50:47;;;;;;;11.23;4.70;;;;;;;;;;5051941;28;20033;-48
2023/07/04 02:53:20;;;;;;;16.00;5.07;;;;;;;;;;5051984;28;20082;-48
2023/07/04 02:55:48;;;;;;;14.88;5.00;;;;;;;;;;5051732;28;20376;-47
2023/07/04 02:58:15;;;;;;;12.45;4.80;;;;;;;;;;5051974;28;20040;-46
2023/07/04 03:00:42;;;;;;;13.32;5.20;;;;;;;;;;5051841;28;20480;-48
2023/07/04 03:03:10;;;;;;;13.35;4.93;;;;;;;;;;5051718;28;20155;-47
2023/07/04 03:05:37;;;;;;;13.00;4.90;;;;;;;;;;5051762;28;20040;-47
2023/07/04 03:08:05;;;;;;;11.80;4.55;;;;;;;;;;5051805;28;20108;-49
2023/07/04 03:10:32;;;;;;;16.95;4.88;;;;;;;;;;5051582;28;20021;-47
2023/07/04 03:12:59;;;;;;;10.65;4.30;;;;;;;;;;5051735;28;20025;-48
2023/07/04 03:15:26;;;;;;;11.15;4.40;;;;;;;;;;5051502;28;20057;-47
2023/07/04 03:17:54;;;;;;;10.65;4.03;;;;;;;;;;5051699;28;20816;-48
2023/07/04 03:20:21;;;;;;;10.77;4.03;;;;;;;;;;5051624;28;20017;-47
2023/07/04 03:22:48;;;;;;;9.43;4.50;;;;;;;;;;5051607;28;20087;-49
2023/07/04 03:25:15;;;;;;;11.38;4.47;;;;;;;;;;5051336;28;20854;-47
2023/07/04 03:27:42;;;;;;;9.88;4.47;;;;;;;;;;5051364;28;20036;-47
2023/07/04 03:30:11;;;;;;;9.25;4.30;;;;;;;;;;5050227;28;20025;-48
2023/07/04 03:32:38;;;;;;;10.38;4.80;;;;;;;;;;5051471;28;20037;-49
2023/07/04 03:35:05;;;;;;;9.18;4.10;;;;;;;;;;5051239;28;20040;-47
2023/07/04 03:37:33;;;;;;;10.95;4.00;;;;;;;;;;5051497;28;20033;-47
2023/07/04 03:40:02;;;;;;;11.27;4.07;;;;;;;;;;5051532;28;20047;-48
2023/07/04 03:42:29;;;;;;;11.13;4.40;;;;;;;;;;5051293;28;20032;-47
2023/07/04 03:44:56;;;;;;;11.07;4.35;;;;;;;;;;5051348;28;20021;-48
2023/07/04 03:47:23;;;;;;;9.40;4.00;;;;;;;;;;5051492;28;20049;-47
2023/07/04 03:49:50;;;;;;;9.45;4.25;;;;;;;;;;5055366;28;20029;-46
2023/07/04 03:52:17;;;;;;;8.43;3.90;;;;;;;;;;5055426;28;20037;-48
2023/07/04 03:54:44;;;;;;;8.82;3.90;;;;;;;;;;5055146;28;20040;-47
2023/07/04 03:57:11;;;;;;;9.23;3.85;;;;;;;;;;5055225;28;20087;-47
2023/07/04 03:59:38;;;;;;;8.60;4.18;;;;;;;;;;5055277;28;20021;-47
2023/07/04 04:02:05;;;;;;;8.73;3.67;;;;;;;;;;5055251;28;20036;-47
2023/07/04 04:04:39;;;;;;;8.35;3.67;;;;;;;;;;5055145;28;20032;-49
2023/07/04 04:07:07;;;;;;;8.80;3.65;;;;;;;;;;5055024;28;20476;-49
2023/07/04 04:09:34;;;;;;;9.32;4.05;;;;;;;;;;5054916;28;20029;-48
2023/07/04 04:12:02;;;;;;;8.15;3.80;;;;;;;;;;5055033;28;20529;-48
2023/07/04 04:14:29;;;;;;;11.45;4.13;;;;;;;;;;5054943;28;20798;-46
2023/07/04 04:16:57;;;;;;;8.60;3.70;;;;;;;;;;5054871;28;20025;-47
2023/07/04 04:19:25;;;;;;;7.60;3.55;;;;;;;;;;5054853;28;20036;-48
2023/07/04 04:21:53;;;;;;;6.20;3.38;;;;;;;;;;5054855;28;20044;-48
2023/07/04 04:24:20;;;;;;;10.15;3.85;;;;;;;;;;5054532;28;20049;-46
2023/07/04 04:26:47;;;;;;;8.85;3.45;;;;;;;;;;5054871;28;20037;-47
2023/07/04 04:29:17;;;;;;;8.88;3.78;;;;;;;;;;5054741;28;20017;-47
2023/07/04 04:31:47;;;;;;;6.35;3.30;;;;;;;;;;5054516;28;20036;-48
2023/07/04 04:34:16;;;;;;;8.25;3.63;;;;;;;;;;5054508;28;20063;-47
2023/07/04 04:36:43;;;;;;;9.77;3.28;;;;;;;;;;5054444;28;20044;-48
2023/07/04 04:39:10;;;;;;;6.03;3.28;;;;;;;;;;5054519;28;20528;-47
2023/07/04 04:41:37;;;;;;;6.53;3.08;;;;;;;;;;5054518;28;20075;-49
2023/07/04 04:44:04;;;;;;;9.60;3.15;;;;;;;;;;5054268;28;20062;-49
2023/07/04 04:46:34;;;;;;;9.07;3.30;;;;;;;;;;5054401;28;20029;-49
2023/07/04 04:49:04;;;;;;;7.90;3.28;;;;;;;;;;5054421;28;20025;-52
2023/07/04 04:51:32;;;;;;;6.47;3.28;;;;;;;;;;5054275;28;20391;-49
2023/07/04 04:54:01;;;;;;;7.60;3.30;;;;;;;;;;5054175;28;20033;-51
2023/07/04 04:56:28;;;;;;;7.22;3.38;;;;;;;;;;5053961;28;20041;-49
2023/07/04 04:58:56;;;;;;;6.28;3.22;;;;;;;;;;5054037;28;20064;-49
2023/07/04 05:01:23;;;;;;;10.18;3.45;;;;;;;;;;5053501;28;20029;-52
2023/07/04 05:03:55;;;;;;;6.18;3.22;;;;;;;;;;5053851;28;20033;-53
2023/07/04 05:06:23;;;;;;;6.32;3.40;;;;;;;;;;5054025;28;20025;-52
2023/07/04 05:08:51;;;;;;;6.93;3.03;;;;;;;;;;5053858;28;20399;-50
2023/07/04 05:11:18;;;;;;;7.18;2.83;;;;;;;;;;5053984;28;20032;-50
2023/07/04 05:13:45;;;;;;;9.00;3.25;;;;;;;;;;5053726;28;20073;-50
2023/07/04 05:16:14;;;;;;;5.72;3.00;;;;;;;;;;5053773;28;20059;-50
2023/07/04 05:18:42;;;;;;;5.95;2.88;;;;;;;;;;5053791;28;20029;-51
2023/07/04 05:21:10;;;;;;;6.95;3.38;;;;;;;;;;5053643;28;20419;-50
2023/07/04 05:23:38;;;;;;;5.93;2.72;;;;;;;;;;5053602;28;20076;-49
2023/07/04 05:26:07;;;;;;;5.18;2.92;;;;;;;;;;5053493;28;20036;-50
2023/07/04 05:28:34;;;;;;;5.55;3.22;;;;;;;;;;5053592;28;20044;-50
2023/07/04 05:31:02;;;;;;;6.65;3.10;;;;;;;;;;5053553;28;20023;-50
2023/07/04 05:33:29;;;;;;;6.10;2.97;;;;;;;;;;5053507;28;20082;-50
2023/07/04 05:36:03;;;;;;;6.28;3.33;;;;;;;;;;5053301;28;20148;-52
2023/07/04 05:38:30;;;;;;;4.13;2.63;;;;;;;;;;5053423;28;20398;-50
2023/07/04 05:40:57;;;;;;;4.35;2.55;;;;;;;;;;5053383;28;20018;-51
2023/07/04 05:43:24;;;;;;;5.45;2.67;;;;;;;;;;5053331;28;20067;-50
2023/07/04 05:45:52;;;;;;;4.82;2.65;;;;;;;;;;5053072;28;20037;-49
2023/07/04 05:48:19;;;;;;;5.80;2.78;;;;;;;;;;5053286;28;20100;-50
2023/07/04 05:50:56;;;;;;;5.90;2.90;;;;;;;;;;5053263;28;20430;-50
2023/07/04 05:53:25;;;;;;;5.20;2.90;;;;;;;;;;5053162;28;20028;-50
2023/07/04 05:55:52;;;;;;;5.18;2.85;;;;;;;;;;5052991;28;20021;-50
2023/07/04 05:58:20;;;;;;;5.25;2.53;;;;;;;;;;5052996;28;20032;-50
2023/07/04 06:00:48;;;;;;;4.45;2.60;;;;;;;;;;5051526;28;20025;-50
2023/07/04 06:03:17;;;;;;;3.28;2.05;;;;;;;;;;5032932;28;20112;-47
2023/07/04 06:05:44;;;;;;;4.70;2.70;;;;;;;;;;5032753;28;20502;-46
2023/07/04 06:08:11;;;;;;;5.47;2.55;;;;;;;;;;5032887;28;20025;-50
2023/07/04 06:10:39;;;;;;;5.80;2.90;;;;;;;;;;5032616;28;20034;-46
2023/07/04 06:13:06;;;;;;;3.95;2.45;;;;;;;;;;5032113;28;20022;-48
2023/07/04 06:15:33;;;;;;;3.92;2.33;;;;;;;;;;5032539;28;20032;-47
2023/07/04 06:18:00;;;;;;;5.45;2.70;;;;;;;;;;5032765;28;20033;-47
2023/07/04 06:20:27;;;;;;;6.07;3.00;;;;;;;;;;5032744;28;20026;-47
2023/07/04 06:22:54;;;;;;;4.65;2.78;;;;;;;;;;5031230;28;20071;-50
2023/07/04 06:25:21;;;;;;;4.57;2.70;;;;;;;;;;5032302;28;20060;-48
2023/07/04 06:27:48;;;;;;;4.90;2.70;;;;;;;;;;5032572;28;20178;-47
2023/07/04 06:30:15;;;;;;;3.83;2.35;;;;;;;;;;5032578;28;20033;-48
2023/07/04 06:32:42;;;;;;;3.92;2.50;;;;;;;;;;5032450;28;20061;-51
2023/07/04 06:35:09;;;;;;;4.45;2.33;;;;;;;;;;5032234;28;20033;-49
2023/07/04 06:37:36;;;;;;;4.20;2.30;;;;;;;;;;5032411;28;20120;-49
2023/07/04 06:40:03;;;;;;;3.10;2.15;;;;;;;;;;5032299;28;20479;-50
2023/07/04 06:42:31;;;;;;;3.42;2.50;;;;;;;;;;5032254;28;20057;-47
2023/07/04 06:44:58;;;;;;;3.15;2.22;;;;;;;;;;5032149;28;20038;-48
2023/07/04 06:47:25;;;;;;;3.47;2.45;;;;;;;;;;5032120;28;20509;-47
2023/07/04 06:49:53;;;;;;;3.10;2.13;;;;;;;;;;5032196;28;20025;-48
2023/07/04 06:52:20;;;;;;;3.47;2.10;;;;;;;;;;5032224;28;20537;-48
2023/07/04 06:54:48;;;;;;;3.45;1.95;;;;;;;;;;5032020;28;20136;-47
2023/07/04 06:57:15;;;;;;;3.58;2.13;;;;;;;;;;5030605;28;20454;-49
2023/07/04 06:59:44;;;;;;;3.53;2.45;;;;;;;;;;5031957;28;20440;-50
2023/07/04 07:02:12;;;;;;;3.83;2.13;;;;;;;;;;5031902;28;20429;-50
2023/07/04 07:04:39;;;;;;;4.97;2.60;;;;;;;;;;5031833;28;20083;-50
2023/07/04 07:07:09;;;;;;;3.38;1.95;;;;;;;;;;5031929;28;20035;-50
2023/07/04 07:09:42;;;;;;;3.22;1.77;;;;;;;;;;5031724;28;20044;-52
2023/07/04 07:12:11;;;;;;;3.90;2.13;;;;;;;;;;5033896;28;20395;-47
2023/07/04 07:14:38;;;;;;;3.72;2.05;;;;;;;;;;5051711;28;20025;-47
2023/07/04 07:17:06;;;;;;;2.97;1.80;;;;;;;;;;5051621;28;20033;-47
2023/07/04 07:19:34;;;;;;;2.60;1.88;;;;;;;;;;5051742;28;20033;-47
2023/07/04 07:22:01;;;;;;;3.28;1.92;;;;;;;;;;5051732;28;20483;-49
2023/07/04 07:24:29;;;;;;;3.28;2.00;;;;;;;;;;5051040;28;20049;-47
2023/07/04 07:26:59;;;;;;;4.38;1.85;;;;;;;;;;5051587;28;20032;-47
2023/07/04 07:29:26;;;;;;;2.92;1.90;;;;;;;;;;5051600;28;20025;-47
2023/07/04 07:31:53;;;;;;;2.80;1.73;;;;;;;;;;5051513;28;20456;-48
2023/07/04 07:34:21;;;;;;;3.40;2.00;;;;;;;;;;5051318;28;20111;-47
2023/07/04 07:36:48;;;;;;;2.95;1.98;;;;;;;;;;5051279;28;20037;-47
2023/07/04 07:39:16;;;;;;;3.33;2.08;;;;;;;;;;5051528;28;20502;-47
2023/07/04 07:41:47;;;;;;;3.50;1.98;;;;;;;;;;5051460;28;20107;-47
2023/07/04 07:44:15;;;;;;;3.65;1.85;;;;;;;;;;5051403;28;20427;-47
2023/07/04 07:46:43;;;;;;;4.90;1.95;;;;;;;;;;5051377;28;20040;-48
2023/07/04 07:49:10;;;;;;;2.92;1.70;;;;;;;;;;5049961;28;20028;-48
2023/07/04 07:51:37;;;;;;;3.80;1.77;;;;;;;;;;5051386;28;20483;-47
2023/07/04 07:54:08;;;;;;;3.15;1.80;;;;;;;;;;5051248;28;20078;-47
2023/07/04 07:56:40;;;;;;;3.05;1.70;;;;;;;;;;5051290;28;20056;-47
2023/07/04 07:59:07;;;;;;;6.35;1.98;;;;;;;;;;5051223;28;20144;-47
2023/07/04 08:01:34;;;;;;;3.63;1.90;;;;;;;;;;5051227;28;20072;-48
2023/07/04 08:04:02;;;;;;;2.58;1.80;;;;;;;;;;5051166;28;20021;-47
2023/07/04 08:06:36;;;;;;;2.05;1.50;;;;;;;;;;5051281;28;20090;-49
2023/07/04 08:09:04;;;;;;;2.97;1.90;;;;;;;;;;5051260;28;20025;-48
2023/07/04 08:11:31;;;;;;;2.45;1.48;;;;;;;;;;5051194;28;20600;-46
2023/07/04 08:13:58;;;;;;;2.97;1.90;;;;;;;;;;5051081;28;20095;-47
2023/07/04 08:16:30;;;;;;;2.47;1.73;;;;;;;;;;5051107;28;20029;-48
2023/07/04 08:18:59;;;;;;;2.40;1.60;;;;;;;;;;5051178;28;20104;-47
2023/07/04 08:21:27;;;;;;;3.03;1.73;;;;;;;;;;5051117;28;20100;-47
2023/07/04 08:23:54;;;;;;;2.10;1.60;;;;;;;;;;5050789;28;20551;-47
2023/07/04 08:26:23;;;;;;;2.50;1.88;;;;;;;;;;5051036;28;20107;-47
2023/07/04 08:28:50;;;;;;;2.28;1.60;;;;;;;;;;5051038;28;20021;-48
2023/07/04 08:31:18;;;;;;;3.17;1.60;;;;;;;;;;5051037;28;20528;-47
2023/07/04 08:33:46;;;;;;;3.83;1.80;;;;;;;;;;5050788;28;20092;-48
2023/07/04 08:36:13;;;;;;;3.08;1.48;;;;;;;;;;5053771;28;20039;-47
2023/07/04 08:38:40;;;;;;;2.25;1.52;;;;;;;;;;5054531;28;20033;-48
2023/07/04 08:41:17;;;;;;;2.67;1.60;;;;;;;;;;5054581;28;20029;-48
2023/07/04 08:43:51;;;;;;;2.15;1.60;;;;;;;;;;5054463;28;20078;-48
2023/07/04 08:46:19;;;;;;;2.10;1.67;;;;;;;;;;5054504;28;20180;-48
2023/07/04 08:48:47;;;;;;;2.28;1.60;;;;;;;;;;5054264;28;20387;-47
2023/07/04 08:51:25;;;;;;;1.95;1.50;;;;;;;;;;5054331;28;20120;-47
2023/07/04 08:53:57;;;;;;;1.52;1.35;;;;;;;;;;5054190;28;20036;-50
2023/07/04 08:56:34;;;;;;;3.38;1.60;;;;;;;;;;5052811;28;20391;-49
2023/07/04 08:59:01;;;;;;;3.30;1.73;;;;;;;;;;5054129;28;20029;-49
2023/07/04 09:01:33;;;;;;;3.10;1.48;;;;;;;;;;5054128;28;20017;-50
2023/07/04 09:04:07;;;;;;;2.38;1.58;;;;;;;;;;5053977;28;20391;-50
2023/07/04 09:06:52;;;;;;;2.35;1.60;;;;;;;;;;5054143;28;20422;-52
2023/07/04 09:09:25;;;;;;;2.08;1.50;;;;;;;;;;5053804;28;20112;-50
2023/07/04 09:11:53;;;;;;;2.85;1.70;;;;;;;;;;5054021;28;20021;-50
2023/07/04 09:14:24;;;;;;;5.05;1.80;;;;;;;;;;5053714;28;20029;-50
2023/07/04 09:16:52;;;;;;;2.25;1.50;;;;;;;;;;5053741;28;20079;-50
2023/07/04 09:19:22;;;;;;;2.10;1.48;;;;;;;;;;5053897;28;20100;-50
2023/07/04 09:21:49;;;;;;;2.15;1.52;;;;;;;;;;5053778;28;20040;-51
2023/07/04 09:24:16;;;;;;;2.65;1.40;;;;;;;;;;5053457;28;20048;-50
2023/07/04 09:26:44;;;;;;;2.38;1.35;;;;;;;;;;5063862;28;20081;-52
2023/07/04 09:29:12;;;;;;;1.67;1.20;;;;;;;;;;5054614;28;20045;-48
2023/07/04 09:31:40;;;;;;;5.32;1.50;;;;;;;;;;5052934;28;20032;-49
2023/07/04 09:34:14;;;;;;;3.90;1.50;;;;;;;;;;5054361;28;20107;-50
2023/07/04 09:36:41;;;;;;;5.03;1.70;;;;;;;;;;5049808;28;20047;-48
2023/07/04 09:39:09;;;;;;;3.53;1.70;;;;;;;;;;5052395;28;20386;-50
2023/07/04 09:41:40;;;;;;;3.35;1.58;;;;;;;;;;5052723;28;20025;-47
2023/07/04 09:44:13;;;;;;;3.30;1.60;;;;;;;;;;5052742;28;20036;-50
2023/07/04 09:46:40;;;;;;;4.20;1.70;;;;;;;;;;5052661;28;20139;-49
2023/07/04 09:49:25;;;;;;;3.05;1.50;;;;;;;;;;5053179;28;20158;-50
2023/07/04 09:52:11;;;;;;;6.38;1.50;;;;;;;;;;5053112;28;20506;-51
2023/07/04 09:54:39;;;;;;;1.80;1.40;;;;;;;;;;5052967;28;20111;-49
2023/07/04 09:57:35;;;;;;;2.72;1.45;;;;;;;;;;5053058;28;20079;-51
2023/07/04 10:00:16;;;;;;;2.90;1.60;;;;;;;;;;5044355;28;20040;-51
2023/07/04 10:02:43;;;;;;;2.42;1.50;;;;;;;;;;5052946;28;20032;-50
2023/07/04 10:05:11;;;;;;;5.88;1.50;;;;;;;;;;5052880;28;20441;-47
2023/07/04 10:07:38;;;;;;;2.67;1.60;;;;;;;;;;5052413;28;20039;-49
2023/07/04 10:10:07;;;;;;;2.70;1.50;;;;;;;;;;5052398;28;20037;-47
2023/07/04 10:12:41;;;;;;;2.10;1.42;;;;;;;;;;5052456;28;20040;-47
2023/07/04 10:15:08;;;;;;;2.33;1.48;;;;;;;;;;5052538;28;20149;-47
2023/07/04 10:17:36;;;;;;;2.67;1.33;;;;;;;;;;5052248;28;20044;-48
2023/07/04 10:20:05;;;;;;;3.15;1.35;;;;;;;;;;5052676;28;20108;-47
2023/07/04 10:22:32;;;;;;;6.18;1.50;;;;;;;;;;5043592;28;20033;-47
2023/07/04 10:25:03;;;;;;;2.55;1.38;;;;;;;;;;5033191;28;20056;-48
2023/07/04 10:27:35;;;;;;;3.40;1.15;;;;;;;;;;5032309;28;20036;-48
2023/07/04 10:30:03;;;;;;;2.38;1.35;;;;;;;;;;5045840;28;20041;-50
2023/07/04 10:32:33;;;;;;;4.15;1.58;;;;;;;;;;5047941;28;20036;-49
2023/07/04 10:35:00;;;;;;;5.82;1.40;;;;;;;;;;5051678;28;20033;-48
2023/07/04 10:37:30;;;;;;;2.65;1.20;;;;;;;;;;5051786;28;20521;-49
2023/07/04 10:39:59;;;;;;;1.98;1.20;;;;;;;;;;5052196;28;20028;-49
2023/07/04 10:42:33;;;;;;;3.42;1.20;;;;;;;;;;5051849;28;20033;-50
2023/07/04 10:45:02;;;;;;;2.92;1.33;;;;;;;;;;5051599;28;20032;-51
2023/07/04 10:47:32;;;;;;;3.22;1.40;;;;;;;;;;5051940;28;20029;-47
2023/07/04 10:50:09;;;;;;;4.05;1.30;;;;;;;;;;5052186;28;20502;-48
2023/07/04 10:52:38;;;;;;;3.10;1.33;;;;;;;;;;5052034;28;20128;-48
2023/07/04 10:55:06;;;;;;;5.55;1.40;;;;;;;;;;5051754;28;20067;-47
2023/07/04 10:57:42;;;;;;;2.55;1.23;;;;;;;;;;5051449;28;20029;-47
2023/07/04 11:00:44;;;;;;;4.72;1.50;;;;;;;;;;5051817;28;20069;-48
2023/07/04 11:03:20;;;;;;;1.60;1.30;;;;;;;;;;4990290;28;20481;-49
2023/07/04 11:05:49;;;;;;;4.82;1.50;;;;;;;;;;5043884;28;20128;-48
2023/07/04 11:08:18;;;;;;;3.80;1.30;;;;;;;;;;5051810;28;20051;-47
2023/07/04 11:10:48;;;;;;;2.25;1.27;;;;;;;;;;5051804;28;20383;-47
2023/07/04 11:13:19;;;;;;;11.50;2.75;;;;;;;;;;5050070;28;20056;-50
2023/07/04 11:15:54;;;;;;;2.42;2.00;;;;;;;;;;5044861;28;20172;-48
2023/07/04 11:18:26;;;;;;;64.47;3.15;;;;;;;;;;5051238;28;20025;-50
2023/07/04 11:21:06;;;;;;;24.33;2.08;;;;;;;;;;5050751;28;20056;-54
2023/07/04 11:23:45;;;;;;;24.48;2.65;;;;;;;;;;5051276;28;20082;-57
2023/07/04 11:26:12;;;;;;;28.10;2.83;;;;;;;;;;5050708;28;20032;-49
2023/07/04 11:28:41;;;;;;;28.10;3.20;;;;;;;;;;5051182;28;20087;-53
2023/07/04 11:31:08;;;;;;;31.40;3.40;;;;;;;;;;5051111;28;20045;-60
2023/07/04 11:33:36;;;;;;;16.70;2.83;;;;;;;;;;5051178;28;20104;-60
2023/07/04 11:36:04;;;;;;;14.07;2.63;;;;;;;;;;5051184;28;20056;-59
2023/07/04 11:38:32;;;;;;;19.05;2.85;;;;;;;;;;5051215;28;20021;-59
2023/07/04 11:41:00;;;;;;;16.33;2.58;;;;;;;;;;5051220;28;20033;-60
2023/07/04 11:43:29;;;;;;;77.80;5.57;;;;;;;;;;5050989;28;20041;-57
2023/07/04 11:45:57;;;;;;;71.80;4.93;;;;;;;;;;5051151;28;20514;-57
2023/07/04 11:48:27;;;;;;;35.15;4.05;;;;;;;;;;5051210;28;20017;-57
2023/07/04 11:51:00;;;;;;;24.00;3.28;;;;;;;;;;5051131;28;20556;-57
2023/07/04 11:53:33;;;;;;;21.98;4.50;;;;;;;;;;5051001;28;20028;-55
2023/07/04 11:56:15;;;;;;;13.50;4.40;;;;;;;;;;5051041;28;20110;-56
2023/07/04 11:58:42;;;;;;;10.88;4.15;;;;;;;;;;5050949;28;20072;-54
2023/07/04 12:01:10;;;;;;;56.83;6.28;;;;;;;;;;5051032;28;20037;-55
2023/07/04 12:03:38;;;;;;;32.10;4.43;;;;;;;;;;5050855;28;20021;-53
2023/07/04 12:06:05;;;;;;;19.52;3.85;;;;;;;;;;5051270;28;20100;-55
2023/07/04 12:08:32;;;;;;;22.13;3.38;;;;;;;;;;5050984;28;20537;-55
2023/07/04 12:11:07;;;;;;;23.75;3.53;;;;;;;;;;5052245;28;20355;-57
2023/07/04 12:13:36;;;;;;;14.27;3.25;;;;;;;;;;5054702;28;20071;-55
2023/07/04 12:16:04;;;;;;;23.23;4.00;;;;;;;;;;5054660;28;20035;-56
2023/07/04 12:18:34;;;;;;;18.35;3.45;;;;;;;;;;5054780;28;20509;-56
2023/07/04 12:21:01;;;;;;;18.15;3.33;;;;;;;;;;5054744;28;20029;-56
2023/07/04 12:23:29;;;;;;;23.00;3.50;;;;;;;;;;5054425;28;20036;-53
2023/07/04 12:25:57;;;;;;;11.77;3.10;;;;;;;;;;5054409;28;20037;-55
2023/07/04 12:28:26;;;;;;;19.42;3.67;;;;;;;;;;5054563;28;20024;-55
2023/07/04 12:30:58;;;;;;;13.18;2.85;;;;;;;;;;5054533;28;20122;-53
2023/07/04 12:33:25;;;;;;;15.38;3.53;;;;;;;;;;5054319;28;20033;-54
2023/07/04 12:35:56;;;;;;;21.90;4.03;;;;;;;;;;5054308;28;20041;-55
2023/07/04 12:38:24;;;;;;;21.27;3.70;;;;;;;;;;5054373;28;20037;-55
2023/07/04 12:40:52;;;;;;;11.55;3.05;;;;;;;;;;5054286;28;20021;-55
2023/07/04 12:43:18;;;;;;;20.85;2.88;;;;;;;;;;5054442;28;20044;-54
2023/07/04 12:45:45;;;;;;;16.23;3.03;;;;;;;;;;5054081;28;20120;-55
2023/07/04 12:48:13;;;;;;;18.33;3.67;;;;;;;;;;5054115;28;20021;-56
2023/07/04 12:50:45;;;;;;;14.45;3.17;;;;;;;;;;5054019;28;20059;-55
2023/07/04 12:53:12;;;;;;;;;;;;;;;;;;5054408;28;20033;-55
2023/07/04 12:55:41;;;;;;;13.10;2.78;;;;;;;;;;5053898;28;19923;-53
2023/07/04 12:58:08;;;;;;;16.80;3.67;;;;;;;;;;5053874;28;20483;-56
2023/07/04 13:00:38;;;;;;;12.15;3.10;;;;;;;;;;5053819;28;20033;-55
2023/07/04 13:03:10;;;;;;;12.88;2.90;;;;;;;;;;5053718;28;20025;-56
2023/07/04 13:05:44;;;;;;;20.88;3.85;;;;;;;;;;5053611;28;20041;-55
2023/07/04 13:08:30;;;;;;;10.80;2.60;;;;;;;;;;5053629;28;20064;-53
2023/07/04 13:10:59;;;;;;;12.55;2.83;;;;;;;;;;5053618;28;20636;-55
2023/07/04 13:13:36;;;;;;;12.00;3.10;;;;;;;;;;5053574;28;20099;-53
2023/07/04 13:16:22;;;;;;;10.60;2.97;;;;;;;;;;5053483;28;20033;-54
2023/07/04 13:18:49;;;;;;;12.05;2.92;;;;;;;;;;5053376;28;20029;-52
2023/07/04 13:21:25;;;;;;;12.35;3.33;;;;;;;;;;5052886;28;20025;-55
2023/07/04 13:23:52;;;;;;;8.25;2.90;;;;;;;;;;5053114;28;20110;-55
2023/07/04 13:26:20;;;;;;;11.95;3.25;;;;;;;;;;5053379;28;20041;-54
2023/07/04 13:28:49;;;;;;;14.73;3.55;;;;;;;;;;5053339;28;20028;-52
2023/07/04 13:31:20;;;;;;;9.55;3.33;;;;;;;;;;5053230;28;20029;-53
2023/07/04 13:33:47;;;;;;;12.50;3.22;;;;;;;;;;5052386;28;20029;-56
2023/07/04 13:36:17;;;;;;;7.88;2.97;;;;;;;;;;5052483;28;20025;-56
2023/07/04 13:38:45;;;;;;;12.70;3.42;;;;;;;;;;5053049;28;20021;-53
2023/07/04 13:41:13;;;;;;;9.00;3.00;;;;;;;;;;5052269;28;20079;-54
2023/07/04 13:43:40;;;;;;;10.45;2.53;;;;;;;;;;5048263;28;20543;-55
2023/07/04 13:46:08;;;;;;;9.80;2.72;;;;;;;;;;5052719;28;20024;-55
2023/07/04 13:48:35;;;;;;;7.53;2.70;;;;;;;;;;5052093;28;20047;-53
2023/07/04 13:51:02;;;;;;;9.00;2.72;;;;;;;;;;5051513;28;20083;-55
2023/07/04 13:53:28;;;;;;;9.50;3.00;;;;;;;;;;5058837;28;20120;-56
2023/07/04 13:55:57;;;;;;;8.98;2.70;;;;;;;;;;5052230;28;20036;-54
2023/07/04 13:58:24;;;;;;;9.52;3.17;;;;;;;;;;5049349;28;20033;-53
2023/07/04 14:00:51;;;;;;;9.63;3.08;;;;;;;;;;5052013;28;20028;-52
2023/07/04 14:03:18;;;;;;;8.18;3.10;;;;;;;;;;5051807;28;20024;-56
2023/07/04 14:05:46;;;;;;;10.77;3.17;;;;;;;;;;5051928;28;20059;-57
2023/07/04 14:08:13;;;;;;;13.00;3.33;;;;;;;;;;5052042;28;20104;-56
2023/07/04 14:10:40;;;;;;;6.68;2.70;;;;;;;;;;5051960;28;20033;-52
2023/07/04 14:13:07;;;;;;;9.02;2.65;;;;;;;;;;5051786;28;20095;-54
2023/07/04 14:15:34;;;;;;;6.43;2.40;;;;;;;;;;5051853;28;20035;-56
2023/07/04 14:18:02;;;;;;;8.73;2.90;;;;;;;;;;5051859;28;20025;-56
2023/07/04 14:20:30;;;;;;;8.63;2.60;;;;;;;;;;5052177;28;20033;-53
2023/07/04 14:22:57;;;;;;;7.35;2.10;;;;;;;;;;5051254;28;20037;-54
2023/07/04 14:25:24;;;;;;;11.15;2.58;;;;;;;;;;5051346;28;20047;-54
2023/07/04 14:27:51;;;;;;;9.13;2.40;;;;;;;;;;5051586;28;20039;-54
2023/07/04 14:30:20;;;;;;;7.65;2.20;;;;;;;;;;5051531;28;20082;-58
2023/07/04 14:32:47;;;;;;;7.25;2.63;;;;;;;;;;5050684;28;20051;-57
2023/07/04 14:35:14;;;;;;;8.10;2.28;;;;;;;;;;5048651;28;20029;-53
2023/07/04 14:37:41;;;;;;;12.25;2.20;;;;;;;;;;5051505;28;20471;-57
2023/07/04 14:40:08;;;;;;;7.60;2.63;;;;;;;;;;5051337;28;20434;-55
2023/07/04 14:42:35;;;;;;;6.32;2.00;;;;;;;;;;5051411;28;20021;-56
2023/07/04 14:45:04;;;;;;;7.45;2.17;;;;;;;;;;5051172;28;20016;-55
2023/07/04 14:47:31;;;;;;;7.32;2.50;;;;;;;;;;5051461;28;20594;-57
2023/07/04 14:49:58;;;;;;;13.73;3.10;;;;;;;;;;5051099;28;20025;-54